Aviation Digital Data Service (ADDS)

Output produced by METARs form (1620 UTC 26 September 2017)
found at http://bcaws.aviationweather.gov/adds/metars/
 
METAR text: KMOD 261553Z 00000KT 10SM CLR 18/08 A2986 RMK AO2 SLP112 T01830078
Conditions at: KMOD (MODESTO , CA, US) observed 1553 UTC 26 September 2017
Temperature: 18.3°C (65°F)
Dewpoint: 7.8°C (46°F) [RH = 50%]
Pressure (altimeter): 29.86 inches Hg (1011.3 mb)
[Sea-level pressure: 1011.2 mb]
Winds: calm
Visibility: 10 or more miles (16+ km)
Ceiling: at least 12,000 feet AGL
Clouds: sky clear below 12,000 feet AGL
Weather: no significant weather observed at this time